sensor_id;sensor_type;location;lat;lon;timestamp;temperature;humidity
10788;DHT22;5446;50.826;4.380;2022-09-16T00:00:43;14.90;99.90
10788;DHT22;5446;50.826;4.380;2022-09-16T00:03:10;14.90;99.90
10788;DHT22;5446;50.826;4.380;2022-09-16T00:05:47;14.80;99.90
10788;DHT22;5446;50.826;4.380;2022-09-16T00:08:14;14.80;99.90
10788;DHT22;5446;50.826;4.380;2022-09-16T00:10:41;14.80;99.90
10788;DHT22;5446;50.826;4.380;2022-09-16T00:13:11;14.70;99.90
10788;DHT22;5446;50.826;4.380;2022-09-16T00:15:44;14.70;99.90
10788;DHT22;5446;50.826;4.380;2022-09-16T00:18:11;14.70;99.90
10788;DHT22;5446;50.826;4.380;2022-09-16T00:20:45;14.60;99.90
10788;DHT22;5446;50.826;4.380;2022-09-16T00:23:11;14.60;99.90
10788;DHT22;5446;50.826;4.380;2022-09-16T00:25:37;14.60;99.90
10788;DHT22;5446;50.826;4.380;2022-09-16T00:28:02;14.50;99.90
10788;DHT22;5446;50.826;4.380;2022-09-16T00:30:28;14.50;99.90
10788;DHT22;5446;50.826;4.380;2022-09-16T00:32:54;14.50;99.90
10788;DHT22;5446;50.826;4.380;2022-09-16T00:35:20;14.50;99.90
10788;DHT22;5446;50.826;4.380;2022-09-16T00:37:47;14.50;99.90
10788;DHT22;5446;50.826;4.380;2022-09-16T00:40:13;14.50;99.90
10788;DHT22;5446;50.826;4.380;2022-09-16T00:42:39;14.40;99.90
10788;DHT22;5446;50.826;4.380;2022-09-16T00:45:31;14.40;99.90
10788;DHT22;5446;50.826;4.380;2022-09-16T00:48:05;14.40;99.90
10788;DHT22;5446;50.826;4.380;2022-09-16T00:50:39;14.40;99.90
10788;DHT22;5446;50.826;4.380;2022-09-16T00:53:18;14.40;99.90
10788;DHT22;5446;50.826;4.380;2022-09-16T00:55:45;14.30;99.90
10788;DHT22;5446;50.826;4.380;2022-09-16T00:58:16;14.30;99.90
10788;DHT22;5446;50.826;4.380;2022-09-16T01:00:43;14.30;99.90
10788;DHT22;5446;50.826;4.380;2022-09-16T01:03:08;14.30;99.90
10788;DHT22;5446;50.826;4.380;2022-09-16T01:05:36;14.20;99.90
10788;DHT22;5446;50.826;4.380;2022-09-16T01:08:02;14.20;99.90
10788;DHT22;5446;50.826;4.380;2022-09-16T01:10:29;14.20;99.90
10788;DHT22;5446;50.826;4.380;2022-09-16T01:13:00;14.10;99.90
10788;DHT22;5446;50.826;4.380;2022-09-16T01:24:17;14.10;99.90
10788;DHT22;5446;50.826;4.380;2022-09-16T01:41:05;13.90;99.90
10788;DHT22;5446;50.826;4.380;2022-09-16T01:43:52;13.90;99.90
10788;DHT22;5446;50.826;4.380;2022-09-16T01:50:03;13.80;99.90
10788;DHT22;5446;50.826;4.380;2022-09-16T01:52:57;13.80;99.90
10788;DHT22;5446;50.826;4.380;2022-09-16T01:55:46;13.70;99.90
10788;DHT22;5446;50.826;4.380;2022-09-16T01:58:21;13.70;99.90
10788;DHT22;5446;50.826;4.380;2022-09-16T02:00:50;13.70;99.90
10788;DHT22;5446;50.826;4.380;2022-09-16T02:03:20;13.70;99.90
10788;DHT22;5446;50.826;4.380;2022-09-16T02:06:08;13.70;99.90
10788;DHT22;5446;50.826;4.380;2022-09-16T02:08:45;13.80;99.90
10788;DHT22;5446;50.826;4.380;2022-09-16T02:11:14;13.80;99.90
10788;DHT22;5446;50.826;4.380;2022-09-16T02:16:35;13.80;99.90
10788;DHT22;5446;50.826;4.380;2022-09-16T02:19:09;13.80;99.90
10788;DHT22;5446;50.826;4.380;2022-09-16T02:21:38;13.80;99.90
10788;DHT22;5446;50.826;4.380;2022-09-16T02:24:08;13.80;99.90
10788;DHT22;5446;50.826;4.380;2022-09-16T02:26:39;13.90;99.90
10788;DHT22;5446;50.826;4.380;2022-09-16T02:29:19;13.90;99.90
10788;DHT22;5446;50.826;4.380;2022-09-16T02:31:46;13.90;99.90
10788;DHT22;5446;50.826;4.380;2022-09-16T02:34:15;13.90;99.90
10788;DHT22;5446;50.826;4.380;2022-09-16T02:36:45;13.90;99.90
10788;DHT22;5446;50.826;4.380;2022-09-16T02:39:16;13.90;99.90
10788;DHT22;5446;50.826;4.380;2022-09-16T02:41:43;13.80;99.90
10788;DHT22;5446;50.826;4.380;2022-09-16T02:44:09;13.90;99.90
10788;DHT22;5446;50.826;4.380;2022-09-16T02:46:57;13.80;99.90
10788;DHT22;5446;50.826;4.380;2022-09-16T02:49:49;13.80;99.90
10788;DHT22;5446;50.826;4.380;2022-09-16T02:52:37;13.90;99.90
10788;DHT22;5446;50.826;4.380;2022-09-16T02:58:06;13.80;99.90
10788;DHT22;5446;50.826;4.380;2022-09-16T03:00:37;13.80;99.90
10788;DHT22;5446;50.826;4.380;2022-09-16T03:03:03;13.90;99.90
10788;DHT22;5446;50.826;4.380;2022-09-16T03:05:29;13.90;99.90
10788;DHT22;5446;50.826;4.380;2022-09-16T03:07:55;13.80;99.90
10788;DHT22;5446;50.826;4.380;2022-09-16T03:10:28;13.80;99.90
10788;DHT22;5446;50.826;4.380;2022-09-16T03:13:35;13.80;99.90
10788;DHT22;5446;50.826;4.380;2022-09-16T03:16:22;13.90;99.90
10788;DHT22;5446;50.826;4.380;2022-09-16T03:19:13;13.90;99.90
10788;DHT22;5446;50.826;4.380;2022-09-16T03:22:14;13.80;99.90
10788;DHT22;5446;50.826;4.380;2022-09-16T03:24:55;13.80;99.90
10788;DHT22;5446;50.826;4.380;2022-09-16T03:27:30;13.80;99.90
10788;DHT22;5446;50.826;4.380;2022-09-16T03:30:03;13.80;99.90
10788;DHT22;5446;50.826;4.380;2022-09-16T03:33:06;13.70;99.90
10788;DHT22;5446;50.826;4.380;2022-09-16T03:35:41;13.70;99.90
10788;DHT22;5446;50.826;4.380;2022-09-16T03:38:09;13.70;99.90
10788;DHT22;5446;50.826;4.380;2022-09-16T03:40:36;13.80;99.90
10788;DHT22;5446;50.826;4.380;2022-09-16T03:43:12;13.80;99.90
10788;DHT22;5446;50.826;4.380;2022-09-16T03:45:39;13.70;99.90
10788;DHT22;5446;50.826;4.380;2022-09-16T03:48:07;13.80;99.90
10788;DHT22;5446;50.826;4.380;2022-09-16T03:50:33;13.70;99.90
10788;DHT22;5446;50.826;4.380;2022-09-16T03:52:59;13.70;99.90
10788;DHT22;5446;50.826;4.380;2022-09-16T03:55:25;13.70;99.90
10788;DHT22;5446;50.826;4.380;2022-09-16T03:57:52;13.70;99.90
10788;DHT22;5446;50.826;4.380;2022-09-16T04:00:18;13.60;99.90
10788;DHT22;5446;50.826;4.380;2022-09-16T04:02:44;13.60;99.90
10788;DHT22;5446;50.826;4.380;2022-09-16T04:05:10;13.60;99.90
10788;DHT22;5446;50.826;4.380;2022-09-16T04:07:35;13.50;99.90
10788;DHT22;5446;50.826;4.380;2022-09-16T04:10:02;13.60;99.90
10788;DHT22;5446;50.826;4.380;2022-09-16T04:12:28;13.50;99.90
10788;DHT22;5446;50.826;4.380;2022-09-16T04:14:54;13.50;99.90
10788;DHT22;5446;50.826;4.380;2022-09-16T04:17:20;13.60;99.90
10788;DHT22;5446;50.826;4.380;2022-09-16T04:19:46;13.50;99.90
10788;DHT22;5446;50.826;4.380;2022-09-16T04:22:12;13.50;99.90
10788;DHT22;5446;50.826;4.380;2022-09-16T04:24:37;13.50;99.90
10788;DHT22;5446;50.826;4.380;2022-09-16T04:27:03;13.50;99.90
10788;DHT22;5446;50.826;4.380;2022-09-16T04:29:28;13.40;99.90
10788;DHT22;5446;50.826;4.380;2022-09-16T04:31:54;13.40;99.90
10788;DHT22;5446;50.826;4.380;2022-09-16T04:34:20;13.30;99.90
10788;DHT22;5446;50.826;4.380;2022-09-16T04:36:46;13.30;99.90
10788;DHT22;5446;50.826;4.380;2022-09-16T04:39:11;13.30;99.90
10788;DHT22;5446;50.826;4.380;2022-09-16T04:41:37;13.20;99.90
10788;DHT22;5446;50.826;4.380;2022-09-16T04:44:04;13.20;99.90
10788;DHT22;5446;50.826;4.380;2022-09-16T04:46:30;13.20;99.90
10788;DHT22;5446;50.826;4.380;2022-09-16T04:48:57;13.20;99.90
10788;DHT22;5446;50.826;4.380;2022-09-16T04:51:24;13.20;99.90
10788;DHT22;5446;50.826;4.380;2022-09-16T04:53:55;13.20;99.90
10788;DHT22;5446;50.826;4.380;2022-09-16T04:56:26;13.20;99.90
10788;DHT22;5446;50.826;4.380;2022-09-16T04:58:54;13.20;99.90
10788;DHT22;5446;50.826;4.380;2022-09-16T05:01:30;13.20;99.90
10788;DHT22;5446;50.826;4.380;2022-09-16T05:03:59;13.20;99.90
10788;DHT22;5446;50.826;4.380;2022-09-16T05:06:27;13.20;99.90
10788;DHT22;5446;50.826;4.380;2022-09-16T05:08:54;13.20;99.90
10788;DHT22;5446;50.826;4.380;2022-09-16T05:11:23;13.20;99.90
10788;DHT22;5446;50.826;4.380;2022-09-16T05:13:49;13.20;99.90
10788;DHT22;5446;50.826;4.380;2022-09-16T05:16:17;13.20;99.90
10788;DHT22;5446;50.826;4.380;2022-09-16T05:22:05;13.20;99.90
10788;DHT22;5446;50.826;4.380;2022-09-16T05:24:34;13.20;99.90
10788;DHT22;5446;50.826;4.380;2022-09-16T05:27:02;13.20;99.90
10788;DHT22;5446;50.826;4.380;2022-09-16T05:29:28;13.20;99.90
10788;DHT22;5446;50.826;4.380;2022-09-16T05:31:54;13.20;99.90
10788;DHT22;5446;50.826;4.380;2022-09-16T05:34:21;13.20;99.90
10788;DHT22;5446;50.826;4.380;2022-09-16T05:36:48;13.20;99.90
10788;DHT22;5446;50.826;4.380;2022-09-16T05:39:15;13.10;99.90
10788;DHT22;5446;50.826;4.380;2022-09-16T05:45:05;13.10;99.90
10788;DHT22;5446;50.826;4.380;2022-09-16T05:47:30;13.10;99.90
10788;DHT22;5446;50.826;4.380;2022-09-16T05:49:56;13.10;99.90
10788;DHT22;5446;50.826;4.380;2022-09-16T05:52:22;13.00;99.90
10788;DHT22;5446;50.826;4.380;2022-09-16T05:54:49;12.90;99.90
10788;DHT22;5446;50.826;4.380;2022-09-16T05:57:15;13.00;99.90
10788;DHT22;5446;50.826;4.380;2022-09-16T05:59:41;13.00;99.90
10788;DHT22;5446;50.826;4.380;2022-09-16T06:02:08;13.00;99.90
10788;DHT22;5446;50.826;4.380;2022-09-16T06:04:36;13.00;99.90
10788;DHT22;5446;50.826;4.380;2022-09-16T06:07:02;13.00;99.90
10788;DHT22;5446;50.826;4.380;2022-09-16T06:09:28;13.00;99.90
10788;DHT22;5446;50.826;4.380;2022-09-16T06:11:54;13.00;99.90
10788;DHT22;5446;50.826;4.380;2022-09-16T06:14:20;13.00;99.90
10788;DHT22;5446;50.826;4.380;2022-09-16T06:16:47;12.90;99.90
10788;DHT22;5446;50.826;4.380;2022-09-16T06:19:15;13.00;99.90
10788;DHT22;5446;50.826;4.380;2022-09-16T06:21:42;12.90;99.90
10788;DHT22;5446;50.826;4.380;2022-09-16T06:24:10;12.80;99.90
10788;DHT22;5446;50.826;4.380;2022-09-16T06:26:37;12.80;99.90
10788;DHT22;5446;50.826;4.380;2022-09-16T06:29:04;12.80;99.90
10788;DHT22;5446;50.826;4.380;2022-09-16T06:31:31;12.80;99.90
10788;DHT22;5446;50.826;4.380;2022-09-16T06:33:57;12.70;99.90
10788;DHT22;5446;50.826;4.380;2022-09-16T06:36:28;12.90;99.90
10788;DHT22;5446;50.826;4.380;2022-09-16T06:38:54;12.80;99.90
10788;DHT22;5446;50.826;4.380;2022-09-16T06:41:20;12.90;99.90
10788;DHT22;5446;50.826;4.380;2022-09-16T06:43:48;12.90;99.90
10788;DHT22;5446;50.826;4.380;2022-09-16T06:46:17;12.90;99.90
10788;DHT22;5446;50.826;4.380;2022-09-16T06:48:48;13.00;99.90
10788;DHT22;5446;50.826;4.380;2022-09-16T06:51:17;13.10;99.90
10788;DHT22;5446;50.826;4.380;2022-09-16T06:53:44;13.10;99.90
10788;DHT22;5446;50.826;4.380;2022-09-16T06:56:12;13.20;99.90
10788;DHT22;5446;50.826;4.380;2022-09-16T06:58:40;13.20;99.90
10788;DHT22;5446;50.826;4.380;2022-09-16T07:01:24;13.00;99.90
10788;DHT22;5446;50.826;4.380;2022-09-16T07:03:51;12.80;99.90
10788;DHT22;5446;50.826;4.380;2022-09-16T07:06:18;12.70;99.90
10788;DHT22;5446;50.826;4.380;2022-09-16T07:08:45;12.70;99.90
10788;DHT22;5446;50.826;4.380;2022-09-16T07:11:16;12.70;99.90
10788;DHT22;5446;50.826;4.380;2022-09-16T07:13:43;12.70;99.90
10788;DHT22;5446;50.826;4.380;2022-09-16T07:16:11;12.80;99.90
10788;DHT22;5446;50.826;4.380;2022-09-16T07:18:37;12.80;99.90
10788;DHT22;5446;50.826;4.380;2022-09-16T07:21:15;12.80;99.90
10788;DHT22;5446;50.826;4.380;2022-09-16T07:23:42;12.80;99.90
10788;DHT22;5446;50.826;4.380;2022-09-16T07:28:37;12.80;99.90
10788;DHT22;5446;50.826;4.380;2022-09-16T07:31:05;12.90;99.90
10788;DHT22;5446;50.826;4.380;2022-09-16T07:33:34;12.80;99.90
10788;DHT22;5446;50.826;4.380;2022-09-16T07:36:01;12.80;99.90
10788;DHT22;5446;50.826;4.380;2022-09-16T07:38:28;12.80;99.90
10788;DHT22;5446;50.826;4.380;2022-09-16T07:40:54;12.90;99.90
10788;DHT22;5446;50.826;4.380;2022-09-16T07:43:21;13.00;99.90
10788;DHT22;5446;50.826;4.380;2022-09-16T07:45:53;13.00;99.90
10788;DHT22;5446;50.826;4.380;2022-09-16T07:48:19;12.90;99.90
10788;DHT22;5446;50.826;4.380;2022-09-16T07:50:56;13.00;99.90
10788;DHT22;5446;50.826;4.380;2022-09-16T07:53:23;13.00;99.90
10788;DHT22;5446;50.826;4.380;2022-09-16T07:55:49;13.00;99.90
10788;DHT22;5446;50.826;4.380;2022-09-16T07:58:14;13.10;99.90
10788;DHT22;5446;50.826;4.380;2022-09-16T08:00:42;13.20;99.90
10788;DHT22;5446;50.826;4.380;2022-09-16T08:03:08;13.40;99.90
10788;DHT22;5446;50.826;4.380;2022-09-16T08:05:34;13.40;99.90
10788;DHT22;5446;50.826;4.380;2022-09-16T08:08:00;13.50;99.90
10788;DHT22;5446;50.826;4.380;2022-09-16T08:10:26;13.50;99.90
10788;DHT22;5446;50.826;4.380;2022-09-16T08:12:52;13.50;99.90
10788;DHT22;5446;50.826;4.380;2022-09-16T08:15:18;13.60;99.90
10788;DHT22;5446;50.826;4.380;2022-09-16T08:17:44;13.60;99.90
10788;DHT22;5446;50.826;4.380;2022-09-16T08:20:09;13.60;99.90
10788;DHT22;5446;50.826;4.380;2022-09-16T08:22:35;13.70;99.90
10788;DHT22;5446;50.826;4.380;2022-09-16T08:25:01;13.80;99.90
10788;DHT22;5446;50.826;4.380;2022-09-16T08:27:26;13.80;99.90
10788;DHT22;5446;50.826;4.380;2022-09-16T08:29:52;13.80;99.90
10788;DHT22;5446;50.826;4.380;2022-09-16T08:32:18;13.80;99.90
10788;DHT22;5446;50.826;4.380;2022-09-16T08:34:43;13.70;99.90
10788;DHT22;5446;50.826;4.380;2022-09-16T08:37:09;13.80;99.90
10788;DHT22;5446;50.826;4.380;2022-09-16T08:39:35;13.90;99.90
10788;DHT22;5446;50.826;4.380;2022-09-16T08:45:11;13.80;99.90
10788;DHT22;5446;50.826;4.380;2022-09-16T08:50:38;13.40;99.90
10788;DHT22;5446;50.826;4.380;2022-09-16T08:53:39;13.30;99.90
10788;DHT22;5446;50.826;4.380;2022-09-16T08:56:10;13.20;99.90
10788;DHT22;5446;50.826;4.380;2022-09-16T08:58:41;13.20;99.90
10788;DHT22;5446;50.826;4.380;2022-09-16T09:04:02;12.80;99.90
10788;DHT22;5446;50.826;4.380;2022-09-16T09:11:45;12.80;99.90
10788;DHT22;5446;50.826;4.380;2022-09-16T09:30:19;13.20;99.90
10788;DHT22;5446;50.826;4.380;2022-09-16T09:33:09;13.20;99.90
10788;DHT22;5446;50.826;4.380;2022-09-16T09:40:54;13.30;99.90
10788;DHT22;5446;50.826;4.380;2022-09-16T09:48:38;13.40;99.90
10788;DHT22;5446;50.826;4.380;2022-09-16T09:51:29;13.50;99.90
10788;DHT22;5446;50.826;4.380;2022-09-16T09:54:01;13.50;99.90
10788;DHT22;5446;50.826;4.380;2022-09-16T09:56:36;13.60;99.90
10788;DHT22;5446;50.826;4.380;2022-09-16T10:02:12;13.90;99.90
10788;DHT22;5446;50.826;4.380;2022-09-16T10:04:39;14.00;99.90
10788;DHT22;5446;50.826;4.380;2022-09-16T10:07:06;14.30;99.90
10788;DHT22;5446;50.826;4.380;2022-09-16T10:09:33;14.40;99.90
10788;DHT22;5446;50.826;4.380;2022-09-16T10:12:00;14.60;99.90
10788;DHT22;5446;50.826;4.380;2022-09-16T10:14:30;14.50;99.90
10788;DHT22;5446;50.826;4.380;2022-09-16T10:17:00;14.60;99.90
10788;DHT22;5446;50.826;4.380;2022-09-16T10:19:27;14.60;99.90
10788;DHT22;5446;50.826;4.380;2022-09-16T10:27:31;15.00;99.90
10788;DHT22;5446;50.826;4.380;2022-09-16T10:30:14;15.20;99.90
10788;DHT22;5446;50.826;4.380;2022-09-16T10:35:29;15.00;99.90
10788;DHT22;5446;50.826;4.380;2022-09-16T10:37:59;14.90;99.90
10788;DHT22;5446;50.826;4.380;2022-09-16T10:40:26;14.40;99.90
10788;DHT22;5446;50.826;4.380;2022-09-16T10:43:01;13.70;99.90
10788;DHT22;5446;50.826;4.380;2022-09-16T10:45:29;12.50;99.90
10788;DHT22;5446;50.826;4.380;2022-09-16T10:48:02;12.20;99.90
10788;DHT22;5446;50.826;4.380;2022-09-16T10:50:29;12.30;99.90
10788;DHT22;5446;50.826;4.380;2022-09-16T10:52:55;12.50;99.90
10788;DHT22;5446;50.826;4.380;2022-09-16T10:55:25;12.60;99.90
10788;DHT22;5446;50.826;4.380;2022-09-16T10:57:52;12.90;99.90
10788;DHT22;5446;50.826;4.380;2022-09-16T11:00:26;13.00;99.90
10788;DHT22;5446;50.826;4.380;2022-09-16T11:11:47;13.70;99.90
10788;DHT22;5446;50.826;4.380;2022-09-16T11:31:33;14.10;99.90
10788;DHT22;5446;50.826;4.380;2022-09-16T11:34:31;13.70;99.90
10788;DHT22;5446;50.826;4.380;2022-09-16T11:37:37;13.50;99.90
10788;DHT22;5446;50.826;4.380;2022-09-16T11:40:25;13.50;99.90
10788;DHT22;5446;50.826;4.380;2022-09-16T11:48:38;13.30;99.90
10788;DHT22;5446;50.826;4.380;2022-09-16T11:56:48;13.30;99.90
10788;DHT22;5446;50.826;4.380;2022-09-16T11:59:29;13.20;99.90
10788;DHT22;5446;50.826;4.380;2022-09-16T12:02:17;12.90;99.90
10788;DHT22;5446;50.826;4.380;2022-09-16T12:04:50;12.60;99.90
10788;DHT22;5446;50.826;4.380;2022-09-16T12:07:25;12.60;99.90
10788;DHT22;5446;50.826;4.380;2022-09-16T12:12:30;12.50;99.90
10788;DHT22;5446;50.826;4.380;2022-09-16T12:15:14;12.50;99.90
10788;DHT22;5446;50.826;4.380;2022-09-16T12:17:54;12.60;99.90
10788;DHT22;5446;50.826;4.380;2022-09-16T12:20:28;12.60;99.90
10788;DHT22;5446;50.826;4.380;2022-09-16T12:23:08;12.70;99.90
10788;DHT22;5446;50.826;4.380;2022-09-16T12:28:55;12.30;99.90
10788;DHT22;5446;50.826;4.380;2022-09-16T12:34:38;12.50;99.90
10788;DHT22;5446;50.826;4.380;2022-09-16T12:39:48;12.90;99.90
10788;DHT22;5446;50.826;4.380;2022-09-16T12:42:40;13.10;99.90
10788;DHT22;5446;50.826;4.380;2022-09-16T12:45:29;13.20;99.90
10788;DHT22;5446;50.826;4.380;2022-09-16T12:51:26;13.50;99.90
10788;DHT22;5446;50.826;4.380;2022-09-16T13:00:08;13.60;99.90
10788;DHT22;5446;50.826;4.380;2022-09-16T13:02:41;13.70;99.90
10788;DHT22;5446;50.826;4.380;2022-09-16T13:05:34;13.70;99.90
10788;DHT22;5446;50.826;4.380;2022-09-16T13:08:06;13.70;99.90
10788;DHT22;5446;50.826;4.380;2022-09-16T13:10:43;13.70;99.90
10788;DHT22;5446;50.826;4.380;2022-09-16T13:13:18;13.60;99.90
10788;DHT22;5446;50.826;4.380;2022-09-16T13:15:54;13.70;99.90
10788;DHT22;5446;50.826;4.380;2022-09-16T13:18:48;13.80;99.90
10788;DHT22;5446;50.826;4.380;2022-09-16T13:21:24;14.00;99.90
10788;DHT22;5446;50.826;4.380;2022-09-16T13:24:03;14.00;99.90
10788;DHT22;5446;50.826;4.380;2022-09-16T13:26:40;13.90;99.90
10788;DHT22;5446;50.826;4.380;2022-09-16T13:29:39;14.10;99.90
10788;DHT22;5446;50.826;4.380;2022-09-16T13:32:27;14.20;99.90
10788;DHT22;5446;50.826;4.380;2022-09-16T13:37:52;14.60;99.90
10788;DHT22;5446;50.826;4.380;2022-09-16T13:40:27;14.80;99.90
10788;DHT22;5446;50.826;4.380;2022-09-16T13:45:40;13.80;99.90
10788;DHT22;5446;50.826;4.380;2022-09-16T13:48:20;12.30;99.90
10788;DHT22;5446;50.826;4.380;2022-09-16T13:50:58;12.00;99.90
10788;DHT22;5446;50.826;4.380;2022-09-16T13:53:32;12.20;99.90
10788;DHT22;5446;50.826;4.380;2022-09-16T14:10:00;12.60;99.90
10788;DHT22;5446;50.826;4.380;2022-09-16T14:15:03;12.90;99.90
10788;DHT22;5446;50.826;4.380;2022-09-16T14:17:42;12.90;99.90
10788;DHT22;5446;50.826;4.380;2022-09-16T14:20:20;13.00;99.90
10788;DHT22;5446;50.826;4.380;2022-09-16T14:23:15;13.20;99.90
10788;DHT22;5446;50.826;4.380;2022-09-16T14:25:41;13.50;99.90
10788;DHT22;5446;50.826;4.380;2022-09-16T14:30:47;13.60;99.90
10788;DHT22;5446;50.826;4.380;2022-09-16T14:33:14;13.70;99.90
10788;DHT22;5446;50.826;4.380;2022-09-16T14:35:42;13.70;99.90
10788;DHT22;5446;50.826;4.380;2022-09-16T14:38:11;13.60;99.90
10788;DHT22;5446;50.826;4.380;2022-09-16T14:40:39;13.40;99.90
10788;DHT22;5446;50.826;4.380;2022-09-16T14:43:07;13.20;99.90
10788;DHT22;5446;50.826;4.380;2022-09-16T14:45:36;13.10;99.90
10788;DHT22;5446;50.826;4.380;2022-09-16T14:48:06;13.10;99.90
10788;DHT22;5446;50.826;4.380;2022-09-16T14:50:36;13.10;99.90
10788;DHT22;5446;50.826;4.380;2022-09-16T14:53:06;13.20;99.90
10788;DHT22;5446;50.826;4.380;2022-09-16T14:55:35;13.20;99.90
10788;DHT22;5446;50.826;4.380;2022-09-16T14:58:04;13.30;99.90
10788;DHT22;5446;50.826;4.380;2022-09-16T15:03:17;13.70;99.90
10788;DHT22;5446;50.826;4.380;2022-09-16T15:05:45;13.80;99.90
10788;DHT22;5446;50.826;4.380;2022-09-16T15:08:40;13.70;99.90
10788;DHT22;5446;50.826;4.380;2022-09-16T15:11:28;13.70;99.90
10788;DHT22;5446;50.826;4.380;2022-09-16T15:13:55;13.90;99.90
10788;DHT22;5446;50.826;4.380;2022-09-16T15:16:22;13.70;99.90
10788;DHT22;5446;50.826;4.380;2022-09-16T15:19:05;13.70;99.90
10788;DHT22;5446;50.826;4.380;2022-09-16T15:21:37;13.70;99.90
10788;DHT22;5446;50.826;4.380;2022-09-16T15:24:05;13.50;99.90
10788;DHT22;5446;50.826;4.380;2022-09-16T15:26:41;13.50;99.90
10788;DHT22;5446;50.826;4.380;2022-09-16T15:31:43;13.50;99.90
10788;DHT22;5446;50.826;4.380;2022-09-16T15:36:50;13.90;99.90
10788;DHT22;5446;50.826;4.380;2022-09-16T15:39:29;14.00;99.90
10788;DHT22;5446;50.826;4.380;2022-09-16T15:44:32;14.30;99.90
10788;DHT22;5446;50.826;4.380;2022-09-16T15:46:59;14.30;99.90
10788;DHT22;5446;50.826;4.380;2022-09-16T15:49:28;14.10;99.90
10788;DHT22;5446;50.826;4.380;2022-09-16T15:52:01;13.90;99.90
10788;DHT22;5446;50.826;4.380;2022-09-16T15:57:25;13.70;99.90
10788;DHT22;5446;50.826;4.380;2022-09-16T16:04:50;13.70;99.90
10788;DHT22;5446;50.826;4.380;2022-09-16T16:07:40;13.80;99.90
10788;DHT22;5446;50.826;4.380;2022-09-16T16:10:13;13.70;99.90
10788;DHT22;5446;50.826;4.380;2022-09-16T16:12:39;13.60;99.90
10788;DHT22;5446;50.826;4.380;2022-09-16T16:15:06;13.80;99.90
10788;DHT22;5446;50.826;4.380;2022-09-16T16:17:33;13.80;99.90
10788;DHT22;5446;50.826;4.380;2022-09-16T16:19:59;13.70;99.90
10788;DHT22;5446;50.826;4.380;2022-09-16T16:22:25;13.70;99.90
10788;DHT22;5446;50.826;4.380;2022-09-16T16:24:51;13.70;99.90
10788;DHT22;5446;50.826;4.380;2022-09-16T16:27:17;13.60;99.90
10788;DHT22;5446;50.826;4.380;2022-09-16T16:29:42;13.40;99.90
10788;DHT22;5446;50.826;4.380;2022-09-16T16:32:11;13.30;99.90
10788;DHT22;5446;50.826;4.380;2022-09-16T16:34:43;13.10;99.90
10788;DHT22;5446;50.826;4.380;2022-09-16T16:37:10;13.00;99.90
10788;DHT22;5446;50.826;4.380;2022-09-16T16:39:37;13.00;99.90
10788;DHT22;5446;50.826;4.380;2022-09-16T16:42:03;12.80;99.90
10788;DHT22;5446;50.826;4.380;2022-09-16T16:44:30;12.80;99.90
10788;DHT22;5446;50.826;4.380;2022-09-16T16:46:57;12.70;99.90
10788;DHT22;5446;50.826;4.380;2022-09-16T16:49:22;12.70;99.90
10788;DHT22;5446;50.826;4.380;2022-09-16T16:51:51;12.50;99.90
10788;DHT22;5446;50.826;4.380;2022-09-16T16:54:20;12.10;99.90
10788;DHT22;5446;50.826;4.380;2022-09-16T16:56:47;11.80;99.90
10788;DHT22;5446;50.826;4.380;2022-09-16T16:59:13;11.60;99.90
10788;DHT22;5446;50.826;4.380;2022-09-16T17:01:39;11.50;99.90
10788;DHT22;5446;50.826;4.380;2022-09-16T17:04:06;11.50;99.90
10788;DHT22;5446;50.826;4.380;2022-09-16T17:06:33;11.40;99.90
10788;DHT22;5446;50.826;4.380;2022-09-16T17:08:59;11.40;99.90
10788;DHT22;5446;50.826;4.380;2022-09-16T17:11:25;11.50;99.90
10788;DHT22;5446;50.826;4.380;2022-09-16T17:13:55;11.50;99.90
10788;DHT22;5446;50.826;4.380;2022-09-16T17:16:23;11.50;99.90
10788;DHT22;5446;50.826;4.380;2022-09-16T17:18:50;11.50;99.90
10788;DHT22;5446;50.826;4.380;2022-09-16T17:21:42;11.60;99.90
10788;DHT22;5446;50.826;4.380;2022-09-16T17:24:08;11.50;99.90
10788;DHT22;5446;50.826;4.380;2022-09-16T17:26:34;11.60;99.90
10788;DHT22;5446;50.826;4.380;2022-09-16T17:29:00;11.60;99.90
10788;DHT22;5446;50.826;4.380;2022-09-16T17:31:29;11.60;99.90
10788;DHT22;5446;50.826;4.380;2022-09-16T17:34:00;11.70;99.90
10788;DHT22;5446;50.826;4.380;2022-09-16T17:36:28;11.70;99.90
10788;DHT22;5446;50.826;4.380;2022-09-16T17:39:00;11.70;99.90
10788;DHT22;5446;50.826;4.380;2022-09-16T17:41:26;11.80;99.90
10788;DHT22;5446;50.826;4.380;2022-09-16T17:43:56;11.70;99.90
10788;DHT22;5446;50.826;4.380;2022-09-16T17:46:24;11.80;99.90
10788;DHT22;5446;50.826;4.380;2022-09-16T17:48:58;11.80;99.90
10788;DHT22;5446;50.826;4.380;2022-09-16T17:51:24;11.80;99.90
10788;DHT22;5446;50.826;4.380;2022-09-16T17:53:50;11.80;99.90
10788;DHT22;5446;50.826;4.380;2022-09-16T17:56:16;11.80;99.90
10788;DHT22;5446;50.826;4.380;2022-09-16T17:58:43;11.80;99.90
10788;DHT22;5446;50.826;4.380;2022-09-16T18:01:14;11.80;99.90
10788;DHT22;5446;50.826;4.380;2022-09-16T18:03:41;11.80;99.90
10788;DHT22;5446;50.826;4.380;2022-09-16T18:06:10;11.80;99.90
10788;DHT22;5446;50.826;4.380;2022-09-16T18:08:37;11.80;99.90
10788;DHT22;5446;50.826;4.380;2022-09-16T18:11:04;11.80;99.90
10788;DHT22;5446;50.826;4.380;2022-09-16T18:13:32;11.80;99.90
10788;DHT22;5446;50.826;4.380;2022-09-16T18:16:18;11.80;99.90
10788;DHT22;5446;50.826;4.380;2022-09-16T18:18:45;11.70;99.90
10788;DHT22;5446;50.826;4.380;2022-09-16T18:21:15;11.60;99.90
10788;DHT22;5446;50.826;4.380;2022-09-16T18:23:42;11.60;99.90
10788;DHT22;5446;50.826;4.380;2022-09-16T18:26:11;11.50;99.90
10788;DHT22;5446;50.826;4.380;2022-09-16T18:28:38;11.50;99.90
10788;DHT22;5446;50.826;4.380;2022-09-16T18:31:13;11.60;99.90
10788;DHT22;5446;50.826;4.380;2022-09-16T18:33:39;11.60;99.90
10788;DHT22;5446;50.826;4.380;2022-09-16T18:36:08;11.60;99.90
10788;DHT22;5446;50.826;4.380;2022-09-16T18:38:35;11.60;99.90
10788;DHT22;5446;50.826;4.380;2022-09-16T18:41:21;11.60;99.90
10788;DHT22;5446;50.826;4.380;2022-09-16T18:43:56;11.60;99.90
10788;DHT22;5446;50.826;4.380;2022-09-16T18:46:26;11.60;99.90
10788;DHT22;5446;50.826;4.380;2022-09-16T18:51:21;11.60;99.90
10788;DHT22;5446;50.826;4.380;2022-09-16T18:53:48;11.70;99.90
10788;DHT22;5446;50.826;4.380;2022-09-16T18:56:16;11.60;99.90
10788;DHT22;5446;50.826;4.380;2022-09-16T18:58:44;11.60;99.90
10788;DHT22;5446;50.826;4.380;2022-09-16T19:01:24;11.60;99.90
10788;DHT22;5446;50.826;4.380;2022-09-16T19:03:52;11.60;99.90
10788;DHT22;5446;50.826;4.380;2022-09-16T19:06:18;11.60;99.90
10788;DHT22;5446;50.826;4.380;2022-09-16T19:08:44;11.70;99.90
10788;DHT22;5446;50.826;4.380;2022-09-16T19:11:10;11.50;99.90
10788;DHT22;5446;50.826;4.380;2022-09-16T19:13:36;11.50;99.90
10788;DHT22;5446;50.826;4.380;2022-09-16T19:16:04;11.50;99.90
10788;DHT22;5446;50.826;4.380;2022-09-16T19:18:31;11.50;99.90
10788;DHT22;5446;50.826;4.380;2022-09-16T19:20:57;11.50;99.90
10788;DHT22;5446;50.826;4.380;2022-09-16T19:23:23;11.50;99.90
10788;DHT22;5446;50.826;4.380;2022-09-16T19:25:49;11.50;99.90